Port Columbus International Airport
KCMH : rendu visible

Aérodrome :











RETROUVEZ-NOUS SUR...

 
LOGIN :

S'inscrire | Disclaimer

   EN    FR    IT 

 









Légende :    VFR   VFR Marginal   IFR   IFR Intensif   IFR Très Intensif
Visi : 
Plafond : 
>= 8 km
>= 3000ft
5 à 8 km
1000 à 3000 ft
1500m à 5 km
500 à 1000 ft
800 à 1500m
200 à 500 ft
< 800m
< 200 ft
Symboles :   Orages  Brouillard  Fortes neiges  Fortes précipitations  Vent > 20 kt






- Altitude de l'aérodrome : 815 ft
- Code IATA : CMH


KCMH - Port Columbus International

DERNIER METAR :
  • 190407Z 28022G31KT 10SM -SN OVC018 01/M03 A2987 RMK AO2 PK WND 29031/0402 P0000 T00061033 $

METARs EXPIRÉS :
  • 190351Z 28021G26KT 9SM -SN OVC018 01/M03 A2986 RMK AO2 PK WND 29032/0258 SLP117 SNB00 P0000 T00061028 $
  • 190251Z 27018G23KT 10SM BKN023 OVC034 03/M01 A2983 RMK AO2 RAB08E21 SLP107 P0000 60000 T00281006 55001 $
  • 190151Z 25015G20KT 10SM BKN024 OVC042 04/M01 A2982 RMK AO2 SLP103 T00391006 $
  • 190134Z 25012KT 10SM BKN028 OVC039 04/M01 A2982 RMK AO2 T00391006 $

TAF KCMH
Valide du 19 à 04h jusqu'au 20 à 00h UTC


190356Z 1904/1924 27018G27KT P6SM OVC015
FM190700 27015G25KT P6SM OVC015
FM191600 27014G22KT P6SM OVC022



MET'MAP, la Météo Aéronautique d'un coup d'oeil ! - Copyright ORBIFLY Décembre 2007 - Disclaimer

ORBIFLY MET'MAP TEAM :

Programmation & Développement : Alexandra Zaïnal
Sur une idée originale de : Baudouin d'Aumeries
Assistance à la programmation : Marc-Olivier Méhu
Soutien technique & logistique : Manuel Goepfert

Contact : metmap@orbifly.com




SOURCES & CREDITS :

   NOAA       Earth
Advisory